• Join FlightAware (Why Join?)
  • Login
  • US Flag 
01:09PM EDT


 

Airport Tracker/Info


-or-


 

Live Flight TrackerFlight Track Log ✈ FLG3933 ✈ 03-Oct-2013 ✈ KMSP - KGRB

Flight Track Log - Related Links

Times and Time Zones

All times are in EDT time to prevent confusion due to time zone crossing. See the FLG3933 flight status page for this flight to view local times or setup timezone preferences in your user account.

Time Position Orientation Groundspeed Altitude Reporting Facility
EDT Latitude Longitude Course Direction KTS MPH feet Rate Location/Type
11:12AM 44.8667 -93.1500 95° East 162 186 2,500  Level Minneapolis TRACON
11:13AM 44.8639 -93.1067 95° East 189 217 3,100 1,320 Climbing Minneapolis Center
11:14AM 44.8581 -93.0172 95° East 238 274 4,600 1,860 Climbing Minneapolis Center
11:15AM 44.9256 -92.9736 25° Northeast 293 337 7,000 1,740 Climbing Minneapolis Center
11:16AM 45.0097 -92.9672 North 304 350 8,300 1,620 Climbing Minneapolis Center
11:17AM 45.0714 -92.9019 37° Northeast 299 344 10,400 1,620 Climbing Minneapolis Center
11:18AM 45.1142 -92.7881 62° Northeast 325 374 11,700 1,200 Climbing Minneapolis Center
11:19AM 45.1719 -92.6347 62° Northeast 370 426 12,900 1,200 Climbing Minneapolis Center
11:20AM 45.2228 -92.5006 62° Northeast 383 441 14,200 1,200 Climbing Minneapolis Center
11:21AM 45.2397 -92.3525 81° East 392 451 15,400 1,200 Climbing Minneapolis Center
11:22AM 45.2178 -92.1981 101° East 399 459 16,700 1,200 Climbing Minneapolis Center
11:23AM 45.1958 -92.0444 101° East 400 460 17,900 840 Climbing Minneapolis Center
11:24AM 45.1711 -91.8886 103° East 403 464 18,500 480 Climbing Minneapolis Center
11:25AM 45.1467 -91.7239 102° East 421 484 19,000 480 Climbing Minneapolis Center
11:26AM 45.1164 -91.5225 102° East 434 499 19,600 540 Climbing Minneapolis Center
11:27AM 45.0894 -91.3522 103° East 440 506 20,200 480 Climbing Minneapolis Center
11:28AM 45.0628 -91.1819 102° East 443 510 20,700 480 Climbing Minneapolis Center
11:29AM 45.0356 -91.0094 103° East 448 516 21,200 480 Climbing Minneapolis Center
11:30AM 45.0069 -90.8278 102° East 449 517 21,700 540 Climbing Minneapolis Center
11:31AM 44.9794 -90.6575 103° East 447 514 22,400 600 Climbing Minneapolis Center
11:32AM 44.9536 -90.4883 102° East 444 511 23,000 240 Climbing Minneapolis Center
11:33AM 44.9247 -90.3186 103° East 446 513 23,000  Level Minneapolis Center
11:34AM 44.8972 -90.1506 103° East 442 509 23,000  Level Minneapolis Center
11:35AM 44.8639 -89.9497 103° East 440 506 23,000 -780 Level Minneapolis Center
11:36AM 44.8361 -89.7814 103° East 443 510 21,500 -1,740 Descending Minneapolis Center
11:37AM 44.8081 -89.6200 104° East 429 494 19,500 -2,040 Descending Minneapolis Center
11:38AM 44.7808 -89.4597 103° East 410 472 17,400 -2,100 Descending Minneapolis Center
11:39AM 44.7533 -89.3000 104° East 404 465 15,300 -1,680 Descending Minneapolis Center
11:40AM 44.7272 -89.1511 104° East 380 437 14,000 -1,440 Descending Minneapolis Center
11:41AM 44.7014 -89.0050 104° East 365 420 12,400 -1,620 Descending Minneapolis Center
11:42AM 44.6794 -88.8792 104° East 335 386 10,700 -2,040 Descending Minneapolis Center
11:43AM 44.6589 -88.7667 104° East 302 348 8,300 -2,520 Descending Minneapolis Center
11:44AM 44.6408 -88.6592 103° East 287 330 5,600 -2,640 Descending Minneapolis Center
11:46AM 44.6044 -88.5347 104° East  Level Estimated
11:53AM 44.4846 -88.1297 90° East  Level Estimated
11:54AM 44.4846 -88.1297 90° East  Level Estimated
11:55AM 44.4846 -88.1297 90° East  Level Estimated
11:56AM 44.4846 -88.1297 90° East  Level Estimated
11:57AM 44.4846 -88.1297 90° East  Level Estimated
11:58AM 44.4846 -88.1297 90° East  Level Estimated
11:59AM 44.4846 -88.1297 90° East  Level Estimated
12:00PM 44.4846 -88.1297 90° East  Level Estimated
12:01PM 44.4846 -88.1297 90° East  Level Estimated